createdAt,value
2022-09-16T00:02:20.105Z,68.70
2022-09-16T00:05:26.757Z,68.11
2022-09-16T00:08:33.135Z,67.84
2022-09-16T00:11:39.021Z,67.80
2022-09-16T00:14:44.991Z,68.12
2022-09-16T00:17:50.897Z,67.98
2022-09-16T00:20:56.777Z,67.24
2022-09-16T00:24:03.132Z,67.67
2022-09-16T00:27:09.081Z,67.50
2022-09-16T00:30:15.500Z,67.48
2022-09-16T00:33:22.204Z,67.65
2022-09-16T00:36:28.268Z,66.93
2022-09-16T00:39:32.528Z,67.31
2022-09-16T00:42:42.116Z,67.35
2022-09-16T00:45:51.572Z,67.41
2022-09-16T00:48:58.021Z,67.31
2022-09-16T00:52:07.499Z,67.60
2022-09-16T00:55:18.859Z,67.17
2022-09-16T00:58:29.314Z,67.14
2022-09-16T01:01:36.165Z,67.47
2022-09-16T01:04:51.405Z,67.30
2022-09-16T01:07:58.471Z,67.05
2022-09-16T01:11:04.592Z,67.05
2022-09-16T01:14:27.239Z,67.25
2022-09-16T01:17:47.300Z,67.40
2022-09-16T01:21:10.936Z,66.69
2022-09-16T01:24:51.312Z,67.05
2022-09-16T01:28:29.034Z,67.40
2022-09-16T01:31:43.348Z,66.85
2022-09-16T01:34:57.816Z,67.00
2022-09-16T01:38:11.588Z,66.99
2022-09-16T01:41:28.289Z,66.86
2022-09-16T01:44:46.293Z,67.17
2022-09-16T01:48:02.805Z,65.93
2022-09-16T01:51:15.725Z,66.46
2022-09-16T01:54:28.518Z,65.97
2022-09-16T01:57:39.706Z,65.56
2022-09-16T02:00:47.338Z,65.73
2022-09-16T02:04:00.805Z,65.90
2022-09-16T02:07:10.551Z,66.01
2022-09-16T02:10:24.666Z,66.79
2022-09-16T02:13:36.026Z,66.52
2022-09-16T02:16:48.214Z,66.79
2022-09-16T02:20:01.565Z,66.79
2022-09-16T02:23:11.944Z,66.50
2022-09-16T02:26:22.033Z,66.39
2022-09-16T02:29:33.570Z,67.00
2022-09-16T02:32:43.666Z,66.82
2022-09-16T02:35:53.806Z,66.78
2022-09-16T02:39:04.233Z,66.53
2022-09-16T02:42:10.740Z,67.09
2022-09-16T02:45:16.979Z,67.17
2022-09-16T02:48:30.994Z,66.93
2022-09-16T02:51:47.687Z,67.24
2022-09-16T02:54:59.729Z,67.26
2022-09-16T02:58:06.013Z,66.94
2022-09-16T03:01:15.034Z,67.05
2022-09-16T03:04:21.818Z,67.26
2022-09-16T03:07:28.045Z,67.61
2022-09-16T03:10:44.901Z,67.35
2022-09-16T03:14:01.046Z,67.40
2022-09-16T03:17:17.738Z,67.57
2022-09-16T03:20:31.924Z,67.69
2022-09-16T03:23:45.622Z,67.51
2022-09-16T03:27:00.922Z,67.53
2022-09-16T03:30:10.249Z,67.49
2022-09-16T03:33:25.646Z,67.45
2022-09-16T03:36:35.799Z,67.22
2022-09-16T03:39:42.665Z,67.15
2022-09-16T03:42:48.800Z,67.41
2022-09-16T03:45:53.028Z,67.73
2022-09-16T03:48:59.155Z,67.64
2022-09-16T03:52:04.893Z,66.88
2022-09-16T03:55:10.905Z,66.30
2022-09-16T03:58:16.787Z,66.50
2022-09-16T04:01:22.708Z,66.63
2022-09-16T04:04:28.625Z,66.50
2022-09-16T04:07:36.227Z,66.39
2022-09-16T04:10:42.108Z,66.65
2022-09-16T04:13:47.985Z,66.84
2022-09-16T04:16:53.858Z,66.79
2022-09-16T04:19:59.741Z,66.92
2022-09-16T04:23:06.018Z,66.57
2022-09-16T04:26:13.534Z,67.13
2022-09-16T04:29:19.469Z,66.82
2022-09-16T04:32:25.304Z,66.24
2022-09-16T04:35:31.181Z,66.34
2022-09-16T04:38:37.165Z,66.17
2022-09-16T04:41:43.038Z,66.33
2022-09-16T04:44:49.113Z,66.25
2022-09-16T04:48:00.556Z,66.41
2022-09-16T04:51:09.500Z,66.39
2022-09-16T04:54:15.575Z,66.19
2022-09-16T04:57:20.048Z,66.33
2022-09-16T05:00:27.091Z,66.35
2022-09-16T05:03:33.425Z,66.33
2022-09-16T05:06:40.877Z,66.15
2022-09-16T05:09:47.161Z,66.32
2022-09-16T05:12:55.827Z,66.56
2022-09-16T05:16:06.403Z,67.01
2022-09-16T05:19:14.337Z,66.80
2022-09-16T05:22:20.198Z,66.68
2022-09-16T05:25:26.295Z,66.54
2022-09-16T05:28:30.517Z,66.55
2022-09-16T05:31:38.441Z,66.64
2022-09-16T05:34:44.274Z,66.38
2022-09-16T05:37:52.511Z,66.56
2022-09-16T05:41:01.211Z,66.78
2022-09-16T05:44:08.087Z,66.91
2022-09-16T05:47:14.042Z,67.33
2022-09-16T05:50:20.805Z,67.49
2022-09-16T05:53:28.053Z,66.22
2022-09-16T05:56:33.987Z,66.60
2022-09-16T05:59:39.845Z,65.64
2022-09-16T06:02:46.187Z,66.71
2022-09-16T06:05:52.110Z,67.04
2022-09-16T06:09:00.213Z,66.40
2022-09-16T06:12:06.587Z,66.16
2022-09-16T06:15:14.244Z,66.08
2022-09-16T06:18:20.330Z,66.80
2022-09-16T06:21:25.101Z,66.64
2022-09-16T06:24:30.947Z,65.52
2022-09-16T06:27:36.846Z,65.07
2022-09-16T06:30:43.132Z,64.96
2022-09-16T06:33:50.471Z,65.57
2022-09-16T06:36:56.316Z,64.70
2022-09-16T06:40:02.240Z,64.64
2022-09-16T06:43:08.154Z,65.17
2022-09-16T06:46:16.804Z,64.63
2022-09-16T06:49:22.781Z,63.48
2022-09-16T06:52:29.373Z,63.75
2022-09-16T06:55:36.237Z,62.72
2022-09-16T06:58:44.146Z,63.11
2022-09-16T07:01:49.994Z,62.24
2022-09-16T07:04:55.855Z,60.76
2022-09-16T07:08:02.417Z,60.93
2022-09-16T07:11:10.227Z,60.41
2022-09-16T07:14:16.387Z,60.60
2022-09-16T07:17:26.146Z,61.65
2022-09-16T07:20:32.018Z,59.65
2022-09-16T07:23:39.502Z,59.48
2022-09-16T07:26:46.378Z,58.45
2022-09-16T07:29:53.961Z,58.04
2022-09-16T07:33:00.151Z,58.01
2022-09-16T07:36:08.011Z,60.45
2022-09-16T07:39:15.585Z,59.49
2022-09-16T07:42:21.690Z,57.71
2022-09-16T07:45:25.930Z,58.24
2022-09-16T07:48:35.338Z,58.65
2022-09-16T07:51:41.523Z,58.79
2022-09-16T07:54:45.729Z,57.95
2022-09-16T07:57:51.613Z,57.35
2022-09-16T08:01:01.898Z,60.41
2022-09-16T08:04:10.526Z,61.00
2022-09-16T08:07:16.698Z,58.30
2022-09-16T08:10:22.887Z,56.97
2022-09-16T08:13:30.351Z,57.06
2022-09-16T08:16:36.592Z,57.32
2022-09-16T08:19:42.561Z,58.19
2022-09-16T08:22:48.422Z,58.92
2022-09-16T08:26:00.813Z,59.33
2022-09-16T08:29:09.750Z,58.93
2022-09-16T08:32:16.325Z,61.74
2022-09-16T08:35:22.378Z,58.16
2022-09-16T08:38:26.679Z,56.72
2022-09-16T08:41:54.044Z,56.67
2022-09-16T08:45:20.759Z,57.81
2022-09-16T08:48:37.389Z,58.70
2022-09-16T08:51:43.526Z,59.98
2022-09-16T08:54:52.340Z,59.37
2022-09-16T08:58:02.644Z,61.69
2022-09-16T09:01:20.380Z,60.21
2022-09-16T09:04:26.865Z,56.87
2022-09-16T09:07:50.110Z,54.93
2022-09-16T09:11:02.703Z,55.88
2022-09-16T09:14:24.963Z,57.84
2022-09-16T09:17:50.180Z,59.00
2022-09-16T09:21:08.701Z,59.54
2022-09-16T09:24:29.629Z,61.88
2022-09-16T09:27:47.178Z,61.81
2022-09-16T09:31:06.237Z,60.59
2022-09-16T09:34:25.288Z,59.62
2022-09-16T09:37:49.112Z,58.51
2022-09-16T09:40:58.962Z,57.98
2022-09-16T09:44:21.915Z,59.04
2022-09-16T09:47:32.820Z,59.58
2022-09-16T09:50:43.801Z,60.15
2022-09-16T09:53:55.215Z,61.43
2022-09-16T09:57:06.585Z,62.41
2022-09-16T10:00:19.237Z,60.20
2022-09-16T10:03:25.793Z,57.94
2022-09-16T10:06:35.789Z,57.49
2022-09-16T10:09:53.192Z,57.67
2022-09-16T10:13:10.476Z,58.60
2022-09-16T10:16:20.845Z,58.86
2022-09-16T10:19:29.406Z,59.71
2022-09-16T10:22:36.645Z,59.20
2022-09-16T10:25:43.423Z,59.86
2022-09-16T10:28:59.225Z,59.10
2022-09-16T10:32:13.463Z,60.53
2022-09-16T10:35:24.745Z,59.65
2022-09-16T10:38:40.797Z,58.70
2022-09-16T10:41:47.626Z,57.59
2022-09-16T10:44:55.362Z,57.96
2022-09-16T10:48:06.590Z,57.72
2022-09-16T10:51:25.339Z,57.97
2022-09-16T10:54:31.809Z,57.22
2022-09-16T10:57:42.073Z,56.72
2022-09-16T11:00:57.782Z,56.69
2022-09-16T11:04:10.009Z,56.60
2022-09-16T11:07:29.741Z,56.67
2022-09-16T11:10:44.381Z,57.46
2022-09-16T11:13:59.660Z,57.63
2022-09-16T11:17:26.368Z,57.50
2022-09-16T11:20:56.638Z,57.26
2022-09-16T11:24:25.258Z,57.90
2022-09-16T11:27:45.042Z,58.28
2022-09-16T11:30:57.101Z,57.63
2022-09-16T11:34:12.145Z,58.31
2022-09-16T11:37:23.389Z,58.76
2022-09-16T11:40:40.178Z,59.22
2022-09-16T11:44:18.586Z,59.74
2022-09-16T11:47:43.545Z,58.22
2022-09-16T11:50:56.990Z,58.64
2022-09-16T11:54:25.084Z,58.94
2022-09-16T11:57:36.489Z,58.20
2022-09-16T12:00:44.119Z,57.38
2022-09-16T12:03:55.255Z,58.00
2022-09-16T12:07:05.879Z,56.67
2022-09-16T12:10:20.531Z,56.47
2022-09-16T12:13:31.205Z,55.81
2022-09-16T12:16:44.122Z,55.99
2022-09-16T12:19:55.525Z,54.86
2022-09-16T12:23:07.925Z,53.36
2022-09-16T12:26:19.185Z,54.27
2022-09-16T12:29:34.944Z,54.69
2022-09-16T12:32:52.154Z,54.19
2022-09-16T12:36:03.718Z,54.62
2022-09-16T12:39:11.868Z,56.08
2022-09-16T12:42:44.517Z,55.24
2022-09-16T12:46:08.374Z,55.51
2022-09-16T12:49:53.991Z,54.55
2022-09-16T12:53:35.939Z,54.50
2022-09-16T12:57:10.565Z,55.05
2022-09-16T13:00:21.374Z,55.84
2022-09-16T13:03:31.505Z,55.67
2022-09-16T13:06:42.001Z,56.74
2022-09-16T13:09:49.402Z,56.09
2022-09-16T13:12:57.504Z,56.33
2022-09-16T13:16:06.315Z,56.63
2022-09-16T13:19:41.522Z,56.71
2022-09-16T13:22:54.222Z,56.74
2022-09-16T13:26:03.288Z,57.05
2022-09-16T13:29:44.328Z,56.29
2022-09-16T13:33:26.524Z,57.02
2022-09-16T13:36:36.008Z,58.01
2022-09-16T13:39:42.215Z,57.94
2022-09-16T13:42:48.362Z,58.18
2022-09-16T13:46:05.226Z,59.50
2022-09-16T13:49:24.739Z,59.37
2022-09-16T13:52:33.131Z,59.44
2022-09-16T13:55:41.575Z,60.67
2022-09-16T13:59:00.974Z,61.22
2022-09-16T14:02:18.152Z,61.01
2022-09-16T14:05:45.009Z,60.70
2022-09-16T14:08:59.905Z,60.97
2022-09-16T14:12:15.709Z,60.46
2022-09-16T14:15:20.289Z,61.15
2022-09-16T14:18:30.960Z,61.19
2022-09-16T14:21:38.553Z,62.97
2022-09-16T14:24:46.226Z,63.66
2022-09-16T14:31:01.179Z,61.64
2022-09-16T14:34:11.282Z,61.82
2022-09-16T14:37:20.426Z,60.83
2022-09-16T14:40:28.576Z,59.14
2022-09-16T14:43:34.903Z,57.83
2022-09-16T14:46:45.720Z,57.12
2022-09-16T14:49:54.298Z,57.63
2022-09-16T14:53:01.759Z,58.73
2022-09-16T14:56:19.583Z,60.19
2022-09-16T14:59:29.294Z,60.71
2022-09-16T15:02:38.628Z,60.61
2022-09-16T15:05:48.254Z,61.14
2022-09-16T15:08:59.408Z,61.30
2022-09-16T15:12:07.067Z,61.69
2022-09-16T15:15:22.121Z,63.88
2022-09-16T15:18:32.344Z,63.14
2022-09-16T15:21:44.775Z,61.14
2022-09-16T15:24:54.142Z,58.93
2022-09-16T15:28:09.409Z,58.66
2022-09-16T15:31:27.522Z,60.09
2022-09-16T15:34:33.899Z,60.68
2022-09-16T15:37:40.191Z,62.01
2022-09-16T15:40:46.797Z,64.34
2022-09-16T15:43:53.233Z,64.74
2022-09-16T15:47:00.006Z,63.74
2022-09-16T15:50:10.419Z,62.16
2022-09-16T15:53:21.854Z,62.40
2022-09-16T15:56:34.110Z,62.40
2022-09-16T15:59:45.427Z,62.02
2022-09-16T16:02:55.961Z,61.51
2022-09-16T16:06:05.226Z,60.29
2022-09-16T16:09:33.078Z,58.54
2022-09-16T16:12:38.942Z,59.36
2022-09-16T16:15:44.947Z,60.06
2022-09-16T16:18:49.225Z,62.14
2022-09-16T16:21:56.670Z,64.16
2022-09-16T16:25:02.683Z,64.71
2022-09-16T16:28:06.869Z,63.69
2022-09-16T16:31:16.828Z,63.21
2022-09-16T16:34:22.850Z,61.72
2022-09-16T16:40:55.318Z,62.17
2022-09-16T16:44:01.281Z,61.91
2022-09-16T16:47:05.952Z,62.25
2022-09-16T16:50:12.561Z,62.47
2022-09-16T16:53:18.419Z,62.05
2022-09-16T16:56:24.277Z,61.88
2022-09-16T16:59:30.854Z,62.12
2022-09-16T17:02:36.785Z,62.35
2022-09-16T17:05:42.721Z,62.14
2022-09-16T17:08:49.174Z,62.41
2022-09-16T17:11:56.889Z,61.99
2022-09-16T17:15:03.472Z,62.16
2022-09-16T17:18:09.315Z,62.37
2022-09-16T17:21:18.067Z,62.18
2022-09-16T17:24:24.434Z,61.90
2022-09-16T17:27:30.321Z,62.00
2022-09-16T17:30:36.379Z,62.00
2022-09-16T17:33:40.673Z,62.07
2022-09-16T17:36:48.663Z,62.38
2022-09-16T17:39:55.024Z,61.46
2022-09-16T17:43:01.102Z,61.66
2022-09-16T17:46:09.737Z,61.42
2022-09-16T17:49:20.298Z,61.93
2022-09-16T17:52:26.214Z,62.48
2022-09-16T17:55:32.195Z,62.61
2022-09-16T17:58:54.196Z,62.66
2022-09-16T18:02:00.703Z,63.01
2022-09-16T18:05:09.226Z,63.05
2022-09-16T18:08:15.639Z,63.18
2022-09-16T18:11:24.598Z,63.32
2022-09-16T18:14:30.774Z,63.42
2022-09-16T18:17:36.666Z,63.67
2022-09-16T18:20:42.754Z,63.88
2022-09-16T18:23:49.776Z,64.59
2022-09-16T18:26:55.727Z,64.97
2022-09-16T18:30:02.376Z,65.12
2022-09-16T18:33:09.419Z,65.43
2022-09-16T18:36:18.478Z,65.43
2022-09-16T18:39:24.373Z,65.61
2022-09-16T18:42:30.430Z,65.71
2022-09-16T18:45:34.707Z,65.80
2022-09-16T18:48:41.229Z,65.64
2022-09-16T18:51:51.629Z,65.24
2022-09-16T18:54:58.124Z,65.41
2022-09-16T18:58:02.377Z,65.26
2022-09-16T19:01:20.858Z,65.27
2022-09-16T19:04:29.901Z,65.21
2022-09-16T19:07:35.807Z,65.40
2022-09-16T19:10:41.914Z,65.46
2022-09-16T19:13:46.264Z,65.52
2022-09-16T19:16:52.240Z,65.81
2022-09-16T19:19:58.126Z,65.76
2022-09-16T19:23:03.993Z,65.77
2022-09-16T19:26:10.093Z,65.60
2022-09-16T19:29:15.053Z,65.67
2022-09-16T19:32:21.052Z,65.56
2022-09-16T19:35:31.337Z,65.10
2022-09-16T19:38:38.671Z,64.83
2022-09-16T19:41:45.645Z,64.90
2022-09-16T19:44:52.593Z,64.77
2022-09-16T19:48:00.314Z,64.90
2022-09-16T19:51:09.395Z,64.78
2022-09-16T19:54:17.011Z,64.42
2022-09-16T19:57:23.339Z,64.39
2022-09-16T20:00:52.553Z,64.25
2022-09-16T20:03:56.533Z,64.30
2022-09-16T20:07:02.499Z,65.23
2022-09-16T20:10:09.856Z,64.53
2022-09-16T20:13:16.005Z,64.85
2022-09-16T20:16:21.054Z,64.86
2022-09-16T20:19:27.491Z,64.94
2022-09-16T20:22:33.356Z,64.94
2022-09-16T20:25:39.245Z,65.15
2022-09-16T20:28:46.546Z,65.03
2022-09-16T20:31:54.103Z,64.93
2022-09-16T20:35:00.014Z,64.91
2022-09-16T20:38:05.906Z,65.16
2022-09-16T20:41:13.686Z,65.22
2022-09-16T20:44:19.961Z,65.36
2022-09-16T20:47:33.391Z,65.56
2022-09-16T20:50:41.810Z,65.50
2022-09-16T20:53:53.628Z,65.50
2022-09-16T20:56:59.816Z,65.57
2022-09-16T21:00:05.361Z,65.66
2022-09-16T21:03:15.142Z,65.93
2022-09-16T21:06:21.675Z,65.93
2022-09-16T21:09:27.550Z,66.08
2022-09-16T21:12:33.688Z,66.15
2022-09-16T21:15:38.849Z,66.11
2022-09-16T21:18:45.675Z,66.22
2022-09-16T21:21:51.662Z,66.30
2022-09-16T21:24:58.445Z,66.31
2022-09-16T21:28:04.573Z,66.27
2022-09-16T21:31:10.962Z,66.42
2022-09-16T21:34:18.457Z,66.30
2022-09-16T21:37:24.603Z,65.62
2022-09-16T21:40:29.122Z,65.17
2022-09-16T21:43:39.941Z,65.30
2022-09-16T21:46:47.573Z,65.37
2022-09-16T21:49:53.522Z,65.60
2022-09-16T21:52:59.392Z,65.71
2022-09-16T21:56:07.653Z,65.77
2022-09-16T21:59:14.222Z,65.38
2022-09-16T22:02:20.228Z,65.23
2022-09-16T22:05:26.490Z,65.22
2022-09-16T22:08:33.025Z,64.96
2022-09-16T22:11:41.835Z,64.89
2022-09-16T22:14:47.907Z,64.83
2022-09-16T22:17:54.356Z,64.79
2022-09-16T22:21:05.332Z,64.58
2022-09-16T22:24:11.943Z,64.42
2022-09-16T22:27:17.826Z,64.50
2022-09-16T22:30:23.689Z,64.29
2022-09-16T22:33:29.584Z,64.49
2022-09-16T22:36:37.702Z,64.78
2022-09-16T22:39:43.658Z,64.66
2022-09-16T22:42:49.507Z,64.84
2022-09-16T22:45:55.886Z,64.88
2022-09-16T22:49:02.426Z,64.21
2022-09-16T22:52:08.537Z,64.04
2022-09-16T22:55:13.012Z,64.47
2022-09-16T22:58:19.126Z,64.51
2022-09-16T23:01:24.971Z,64.23
2022-09-16T23:04:29.506Z,64.23
2022-09-16T23:07:35.423Z,64.10
2022-09-16T23:10:41.299Z,64.34
2022-09-16T23:13:50.528Z,64.19
2022-09-16T23:16:56.386Z,64.05
2022-09-16T23:20:02.307Z,64.11
2022-09-16T23:23:08.498Z,64.07
2022-09-16T23:26:14.283Z,64.38
2022-09-16T23:29:19.635Z,64.69
2022-09-16T23:32:25.745Z,64.57
2022-09-16T23:35:31.727Z,64.43
2022-09-16T23:38:39.398Z,64.22
2022-09-16T23:41:45.734Z,63.99
2022-09-16T23:44:51.604Z,63.87
2022-09-16T23:47:57.458Z,63.97
2022-09-16T23:51:03.707Z,64.15
2022-09-16T23:54:08.156Z,64.20
2022-09-16T23:57:14.033Z,64.24
